sensor_id;sensor_type;location;lat;lon;timestamp;temperature;humidity
69944;DHT22;57257;48.408;-4.498;2022-08-19T00:01:10;20.77;75.62
69944;DHT22;57257;48.408;-4.498;2022-08-19T00:03:35;20.80;75.59
69944;DHT22;57257;48.408;-4.498;2022-08-19T00:06:00;20.77;75.54
69944;DHT22;57257;48.408;-4.498;2022-08-19T00:08:26;20.79;75.59
69944;DHT22;57257;48.408;-4.498;2022-08-19T00:10:51;20.77;75.56
69944;DHT22;57257;48.408;-4.498;2022-08-19T00:13:17;20.79;75.59
69944;DHT22;57257;48.408;-4.498;2022-08-19T00:15:43;20.80;75.57
69944;DHT22;57257;48.408;-4.498;2022-08-19T00:18:10;20.77;75.63
69944;DHT22;57257;48.408;-4.498;2022-08-19T00:20:35;20.79;75.59
69944;DHT22;57257;48.408;-4.498;2022-08-19T00:23:03;20.79;75.66
69944;DHT22;57257;48.408;-4.498;2022-08-19T00:25:29;20.77;75.67
69944;DHT22;57257;48.408;-4.498;2022-08-19T00:27:54;20.73;75.72
69944;DHT22;57257;48.408;-4.498;2022-08-19T00:30:20;20.75;75.81
69944;DHT22;57257;48.408;-4.498;2022-08-19T00:32:45;20.73;75.76
69944;DHT22;57257;48.408;-4.498;2022-08-19T00:35:11;20.73;75.87
69944;DHT22;57257;48.408;-4.498;2022-08-19T00:37:37;20.72;75.86
69944;DHT22;57257;48.408;-4.498;2022-08-19T00:40:04;20.69;75.87
69944;DHT22;57257;48.408;-4.498;2022-08-19T00:42:30;20.68;76.03
69944;DHT22;57257;48.408;-4.498;2022-08-19T00:44:55;20.65;76.20
69944;DHT22;57257;48.408;-4.498;2022-08-19T00:47:21;20.68;76.18
69944;DHT22;57257;48.408;-4.498;2022-08-19T00:49:49;20.69;76.09
69944;DHT22;57257;48.408;-4.498;2022-08-19T00:52:23;20.68;76.13
69944;DHT22;57257;48.408;-4.498;2022-08-19T00:54:50;20.69;76.09
69944;DHT22;57257;48.408;-4.498;2022-08-19T00:57:18;20.66;76.16
69944;DHT22;57257;48.408;-4.498;2022-08-19T00:59:48;20.66;76.11
69944;DHT22;57257;48.408;-4.498;2022-08-19T01:02:17;20.69;76.18
69944;DHT22;57257;48.408;-4.498;2022-08-19T01:04:43;20.72;76.08
69944;DHT22;57257;48.408;-4.498;2022-08-19T01:07:08;20.75;76.01
69944;DHT22;57257;48.408;-4.498;2022-08-19T01:09:34;20.73;76.00
69944;DHT22;57257;48.408;-4.498;2022-08-19T01:12:00;20.73;76.02
69944;DHT22;57257;48.408;-4.498;2022-08-19T01:14:25;20.76;75.89
69944;DHT22;57257;48.408;-4.498;2022-08-19T01:16:53;20.75;75.96
69944;DHT22;57257;48.408;-4.498;2022-08-19T01:19:28;20.73;76.00
69944;DHT22;57257;48.408;-4.498;2022-08-19T01:22:02;20.72;76.04
69944;DHT22;57257;48.408;-4.498;2022-08-19T01:24:28;20.76;76.02
69944;DHT22;57257;48.408;-4.498;2022-08-19T01:26:56;20.75;75.94
69944;DHT22;57257;48.408;-4.498;2022-08-19T01:29:22;20.75;75.94
69944;DHT22;57257;48.408;-4.498;2022-08-19T01:31:47;20.76;76.05
69944;DHT22;57257;48.408;-4.498;2022-08-19T01:34:18;20.77;75.86
69944;DHT22;57257;48.408;-4.498;2022-08-19T01:36:46;20.73;75.92
69944;DHT22;57257;48.408;-4.498;2022-08-19T01:39:16;20.75;75.98
69944;DHT22;57257;48.408;-4.498;2022-08-19T01:41:42;20.69;76.04
69944;DHT22;57257;48.408;-4.498;2022-08-19T01:44:09;20.72;76.09
69944;DHT22;57257;48.408;-4.498;2022-08-19T01:46:35;20.72;76.02
69944;DHT22;57257;48.408;-4.498;2022-08-19T01:49:02;20.73;75.85
69944;DHT22;57257;48.408;-4.498;2022-08-19T01:51:27;20.72;75.91
69944;DHT22;57257;48.408;-4.498;2022-08-19T01:53:53;20.71;75.69
69944;DHT22;57257;48.408;-4.498;2022-08-19T01:56:19;20.68;75.80
69944;DHT22;57257;48.408;-4.498;2022-08-19T01:58:53;20.62;75.97
69944;DHT22;57257;48.408;-4.498;2022-08-19T02:01:19;20.63;75.98
69944;DHT22;57257;48.408;-4.498;2022-08-19T02:03:45;20.61;75.93
69944;DHT22;57257;48.408;-4.498;2022-08-19T02:06:11;20.57;75.97
69944;DHT22;57257;48.408;-4.498;2022-08-19T02:08:38;20.55;76.16
69944;DHT22;57257;48.408;-4.498;2022-08-19T02:11:05;20.53;76.18
69944;DHT22;57257;48.408;-4.498;2022-08-19T02:13:32;20.52;76.11
69944;DHT22;57257;48.408;-4.498;2022-08-19T02:15:58;20.53;76.18
69944;DHT22;57257;48.408;-4.498;2022-08-19T02:18:24;20.53;76.10
69944;DHT22;57257;48.408;-4.498;2022-08-19T02:20:50;20.52;76.09
69944;DHT22;57257;48.408;-4.498;2022-08-19T02:23:16;20.51;76.02
69944;DHT22;57257;48.408;-4.498;2022-08-19T02:25:44;20.51;76.06
69944;DHT22;57257;48.408;-4.498;2022-08-19T02:28:10;20.52;76.06
69944;DHT22;57257;48.408;-4.498;2022-08-19T02:30:37;20.49;76.03
69944;DHT22;57257;48.408;-4.498;2022-08-19T02:33:03;20.49;76.03
69944;DHT22;57257;48.408;-4.498;2022-08-19T02:35:29;20.46;75.94
69944;DHT22;57257;48.408;-4.498;2022-08-19T02:37:55;20.45;75.89
69944;DHT22;57257;48.408;-4.498;2022-08-19T02:40:39;20.41;75.93
69944;DHT22;57257;48.408;-4.498;2022-08-19T02:43:06;20.42;75.96
69944;DHT22;57257;48.408;-4.498;2022-08-19T02:45:37;20.43;75.95
69944;DHT22;57257;48.408;-4.498;2022-08-19T02:48:04;20.42;75.90
69944;DHT22;57257;48.408;-4.498;2022-08-19T02:50:30;20.45;75.80
69944;DHT22;57257;48.408;-4.498;2022-08-19T02:52:56;20.43;75.72
69944;DHT22;57257;48.408;-4.498;2022-08-19T02:55:21;20.39;75.81
69944;DHT22;57257;48.408;-4.498;2022-08-19T02:57:47;20.39;75.87
69944;DHT22;57257;48.408;-4.498;2022-08-19T03:00:14;20.41;75.83
69944;DHT22;57257;48.408;-4.498;2022-08-19T03:02:40;20.38;75.76
69944;DHT22;57257;48.408;-4.498;2022-08-19T03:05:07;20.39;75.71
69944;DHT22;57257;48.408;-4.498;2022-08-19T03:07:33;20.41;75.72
69944;DHT22;57257;48.408;-4.498;2022-08-19T03:09:58;20.41;75.69
69944;DHT22;57257;48.408;-4.498;2022-08-19T03:12:24;20.42;75.64
69944;DHT22;57257;48.408;-4.498;2022-08-19T03:14:49;20.42;75.61
69944;DHT22;57257;48.408;-4.498;2022-08-19T03:17:16;20.43;75.60
69944;DHT22;57257;48.408;-4.498;2022-08-19T03:19:41;20.39;75.62
69944;DHT22;57257;48.408;-4.498;2022-08-19T03:22:08;20.39;75.70
69944;DHT22;57257;48.408;-4.498;2022-08-19T03:24:34;20.39;75.63
69944;DHT22;57257;48.408;-4.498;2022-08-19T03:26:59;20.38;75.66
69944;DHT22;57257;48.408;-4.498;2022-08-19T03:29:29;20.38;75.71
69944;DHT22;57257;48.408;-4.498;2022-08-19T03:32:00;20.36;75.72
69944;DHT22;57257;48.408;-4.498;2022-08-19T03:34:29;20.41;75.73
69944;DHT22;57257;48.408;-4.498;2022-08-19T03:36:56;20.39;75.73
69944;DHT22;57257;48.408;-4.498;2022-08-19T03:39:24;20.43;75.63
69944;DHT22;57257;48.408;-4.498;2022-08-19T03:41:51;20.43;75.65
69944;DHT22;57257;48.408;-4.498;2022-08-19T03:44:21;20.39;75.68
69944;DHT22;57257;48.408;-4.498;2022-08-19T03:46:50;20.42;75.70
69944;DHT22;57257;48.408;-4.498;2022-08-19T03:49:17;20.43;75.59
69944;DHT22;57257;48.408;-4.498;2022-08-19T03:51:43;20.41;75.54
69944;DHT22;57257;48.408;-4.498;2022-08-19T03:54:12;20.39;75.66
69944;DHT22;57257;48.408;-4.498;2022-08-19T03:56:40;20.42;75.61
69944;DHT22;57257;48.408;-4.498;2022-08-19T03:59:10;20.43;75.60
69944;DHT22;57257;48.408;-4.498;2022-08-19T04:01:36;20.43;75.47
69944;DHT22;57257;48.408;-4.498;2022-08-19T04:04:02;20.42;75.48
69944;DHT22;57257;48.408;-4.498;2022-08-19T04:06:30;20.42;75.43
69944;DHT22;57257;48.408;-4.498;2022-08-19T04:08:58;20.41;75.46
69944;DHT22;57257;48.408;-4.498;2022-08-19T04:11:27;20.43;75.46
69944;DHT22;57257;48.408;-4.498;2022-08-19T04:13:54;20.43;75.31
69944;DHT22;57257;48.408;-4.498;2022-08-19T04:16:21;20.45;75.29
69944;DHT22;57257;48.408;-4.498;2022-08-19T04:18:48;20.48;75.19
69944;DHT22;57257;48.408;-4.498;2022-08-19T04:21:22;20.43;75.22
69944;DHT22;57257;48.408;-4.498;2022-08-19T04:23:48;20.43;75.11
69944;DHT22;57257;48.408;-4.498;2022-08-19T04:26:15;20.39;75.22
69944;DHT22;57257;48.408;-4.498;2022-08-19T04:28:42;20.39;75.22
69944;DHT22;57257;48.408;-4.498;2022-08-19T04:31:16;20.36;75.30
69944;DHT22;57257;48.408;-4.498;2022-08-19T04:33:42;20.36;75.37
69944;DHT22;57257;48.408;-4.498;2022-08-19T04:36:15;20.36;75.45
69944;DHT22;57257;48.408;-4.498;2022-08-19T04:38:41;20.38;75.43
69944;DHT22;57257;48.408;-4.498;2022-08-19T04:41:06;20.36;75.49
69944;DHT22;57257;48.408;-4.498;2022-08-19T04:43:50;20.41;75.54
69944;DHT22;57257;48.408;-4.498;2022-08-19T04:46:16;20.42;75.46
69944;DHT22;57257;48.408;-4.498;2022-08-19T04:48:42;20.42;75.42
69944;DHT22;57257;48.408;-4.498;2022-08-19T04:51:10;20.39;75.44
69944;DHT22;57257;48.408;-4.498;2022-08-19T04:53:40;20.41;75.53
69944;DHT22;57257;48.408;-4.498;2022-08-19T04:56:15;20.38;75.51
69944;DHT22;57257;48.408;-4.498;2022-08-19T04:58:43;20.31;75.64
69944;DHT22;57257;48.408;-4.498;2022-08-19T05:01:22;20.28;75.81
69944;DHT22;57257;48.408;-4.498;2022-08-19T05:03:48;20.26;75.91
69944;DHT22;57257;48.408;-4.498;2022-08-19T05:06:16;20.24;76.01
69944;DHT22;57257;48.408;-4.498;2022-08-19T05:08:42;20.19;76.10
69944;DHT22;57257;48.408;-4.498;2022-08-19T05:11:24;20.21;76.11
69944;DHT22;57257;48.408;-4.498;2022-08-19T05:13:51;20.17;76.28
69944;DHT22;57257;48.408;-4.498;2022-08-19T05:16:19;20.14;76.37
69944;DHT22;57257;48.408;-4.498;2022-08-19T05:18:46;20.09;76.43
69944;DHT22;57257;48.408;-4.498;2022-08-19T05:21:32;20.09;76.54
69944;DHT22;57257;48.408;-4.498;2022-08-19T05:24:17;20.09;76.53
69944;DHT22;57257;48.408;-4.498;2022-08-19T05:26:45;20.08;76.57
69944;DHT22;57257;48.408;-4.498;2022-08-19T05:29:13;20.04;76.67
69944;DHT22;57257;48.408;-4.498;2022-08-19T05:31:38;20.07;76.69
69944;DHT22;57257;48.408;-4.498;2022-08-19T05:34:05;20.04;76.74
69944;DHT22;57257;48.408;-4.498;2022-08-19T05:36:34;20.02;76.80
69944;DHT22;57257;48.408;-4.498;2022-08-19T05:39:02;20.04;76.86
69944;DHT22;57257;48.408;-4.498;2022-08-19T05:41:29;20.00;76.90
69944;DHT22;57257;48.408;-4.498;2022-08-19T05:44:01;20.00;77.07
69944;DHT22;57257;48.408;-4.498;2022-08-19T05:46:27;20.02;77.11
69944;DHT22;57257;48.408;-4.498;2022-08-19T05:48:53;19.97;77.25
69944;DHT22;57257;48.408;-4.498;2022-08-19T05:51:22;19.94;77.26
69944;DHT22;57257;48.408;-4.498;2022-08-19T05:53:47;19.98;77.56
69944;DHT22;57257;48.408;-4.498;2022-08-19T05:56:14;20.00;77.43
69944;DHT22;57257;48.408;-4.498;2022-08-19T05:58:41;20.02;77.34
69944;DHT22;57257;48.408;-4.498;2022-08-19T06:01:13;20.01;77.50
69944;DHT22;57257;48.408;-4.498;2022-08-19T06:03:39;20.02;77.61
69944;DHT22;57257;48.408;-4.498;2022-08-19T06:06:06;20.01;77.62
69944;DHT22;57257;48.408;-4.498;2022-08-19T06:08:32;19.97;77.71
69944;DHT22;57257;48.408;-4.498;2022-08-19T06:11:12;19.98;77.82
69944;DHT22;57257;48.408;-4.498;2022-08-19T06:13:38;19.97;78.01
69944;DHT22;57257;48.408;-4.498;2022-08-19T06:16:03;19.94;78.14
69944;DHT22;57257;48.408;-4.498;2022-08-19T06:18:29;19.92;78.25
69944;DHT22;57257;48.408;-4.498;2022-08-19T06:20:55;19.88;78.52
69944;DHT22;57257;48.408;-4.498;2022-08-19T06:23:20;19.90;78.52
69944;DHT22;57257;48.408;-4.498;2022-08-19T06:25:46;19.92;78.52
69944;DHT22;57257;48.408;-4.498;2022-08-19T06:28:12;19.90;78.57
69944;DHT22;57257;48.408;-4.498;2022-08-19T06:30:38;19.94;78.62
69944;DHT22;57257;48.408;-4.498;2022-08-19T06:33:03;19.92;78.61
69944;DHT22;57257;48.408;-4.498;2022-08-19T06:35:29;19.92;78.62
69944;DHT22;57257;48.408;-4.498;2022-08-19T06:37:55;19.91;78.80
69944;DHT22;57257;48.408;-4.498;2022-08-19T06:40:20;19.91;78.91
69944;DHT22;57257;48.408;-4.498;2022-08-19T06:42:46;19.90;78.87
69944;DHT22;57257;48.408;-4.498;2022-08-19T06:45:12;19.90;78.96
69944;DHT22;57257;48.408;-4.498;2022-08-19T06:47:37;19.91;78.94
69944;DHT22;57257;48.408;-4.498;2022-08-19T06:50:03;19.91;79.02
69944;DHT22;57257;48.408;-4.498;2022-08-19T06:52:34;19.90;79.20
69944;DHT22;57257;48.408;-4.498;2022-08-19T06:55:01;19.92;79.07
69944;DHT22;57257;48.408;-4.498;2022-08-19T06:57:27;19.91;79.02
69944;DHT22;57257;48.408;-4.498;2022-08-19T06:59:58;19.92;79.12
69944;DHT22;57257;48.408;-4.498;2022-08-19T07:02:25;19.95;79.13
69944;DHT22;57257;48.408;-4.498;2022-08-19T07:04:52;19.98;79.18
69944;DHT22;57257;48.408;-4.498;2022-08-19T07:07:17;20.02;79.14
69944;DHT22;57257;48.408;-4.498;2022-08-19T07:09:43;20.08;78.92
69944;DHT22;57257;48.408;-4.498;2022-08-19T07:12:12;20.11;78.99
69944;DHT22;57257;48.408;-4.498;2022-08-19T07:14:39;20.11;78.94
69944;DHT22;57257;48.408;-4.498;2022-08-19T07:17:08;20.09;78.97
69944;DHT22;57257;48.408;-4.498;2022-08-19T07:19:34;20.12;79.03
69944;DHT22;57257;48.408;-4.498;2022-08-19T07:22:03;20.11;79.17
69944;DHT22;57257;48.408;-4.498;2022-08-19T07:24:29;20.15;79.06
69944;DHT22;57257;48.408;-4.498;2022-08-19T07:26:57;20.15;79.08
69944;DHT22;57257;48.408;-4.498;2022-08-19T07:29:26;20.15;79.35
69944;DHT22;57257;48.408;-4.498;2022-08-19T07:31:53;20.19;79.18
69944;DHT22;57257;48.408;-4.498;2022-08-19T07:34:22;20.22;79.19
69944;DHT22;57257;48.408;-4.498;2022-08-19T07:36:49;20.25;78.98
69944;DHT22;57257;48.408;-4.498;2022-08-19T07:39:18;20.24;79.00
69944;DHT22;57257;48.408;-4.498;2022-08-19T07:41:46;20.25;78.97
69944;DHT22;57257;48.408;-4.498;2022-08-19T07:44:13;20.22;79.24
69944;DHT22;57257;48.408;-4.498;2022-08-19T07:46:41;20.24;79.12
69944;DHT22;57257;48.408;-4.498;2022-08-19T07:49:10;20.24;79.07
69944;DHT22;57257;48.408;-4.498;2022-08-19T07:51:48;20.26;79.13
69944;DHT22;57257;48.408;-4.498;2022-08-19T07:54:14;20.31;79.10
69944;DHT22;57257;48.408;-4.498;2022-08-19T07:56:39;20.29;79.17
69944;DHT22;57257;48.408;-4.498;2022-08-19T07:59:05;20.35;79.17
69944;DHT22;57257;48.408;-4.498;2022-08-19T08:01:31;20.36;78.99
69944;DHT22;57257;48.408;-4.498;2022-08-19T08:03:57;20.38;79.08
69944;DHT22;57257;48.408;-4.498;2022-08-19T08:06:41;20.35;79.09
69944;DHT22;57257;48.408;-4.498;2022-08-19T08:09:43;20.45;79.03
69944;DHT22;57257;48.408;-4.498;2022-08-19T08:14:43;20.57;78.97
69944;DHT22;57257;48.408;-4.498;2022-08-19T08:17:10;20.66;78.71
69944;DHT22;57257;48.408;-4.498;2022-08-19T08:19:36;20.68;78.48
69944;DHT22;57257;48.408;-4.498;2022-08-19T08:22:02;20.69;78.46
69944;DHT22;57257;48.408;-4.498;2022-08-19T08:24:30;20.73;78.41
69944;DHT22;57257;48.408;-4.498;2022-08-19T08:26:58;20.76;78.33
69944;DHT22;57257;48.408;-4.498;2022-08-19T08:29:25;20.75;77.97
69944;DHT22;57257;48.408;-4.498;2022-08-19T08:31:52;20.72;77.78
69944;DHT22;57257;48.408;-4.498;2022-08-19T08:34:19;20.73;77.75
69944;DHT22;57257;48.408;-4.498;2022-08-19T08:36:45;20.75;77.79
69944;DHT22;57257;48.408;-4.498;2022-08-19T08:39:17;20.79;77.62
69944;DHT22;57257;48.408;-4.498;2022-08-19T08:41:53;20.83;77.55
69944;DHT22;57257;48.408;-4.498;2022-08-19T08:44:32;20.86;77.27
69944;DHT22;57257;48.408;-4.498;2022-08-19T08:47:09;20.92;76.97
69944;DHT22;57257;48.408;-4.498;2022-08-19T08:50:18;20.85;76.79
69944;DHT22;57257;48.408;-4.498;2022-08-19T08:52:47;20.89;77.05
69944;DHT22;57257;48.408;-4.498;2022-08-19T08:55:16;20.92;77.00
69944;DHT22;57257;48.408;-4.498;2022-08-19T09:00:22;21.00;77.03
69944;DHT22;57257;48.408;-4.498;2022-08-19T09:02:50;21.04;76.75
69944;DHT22;57257;48.408;-4.498;2022-08-19T09:05:16;21.00;76.71
69944;DHT22;57257;48.408;-4.498;2022-08-19T09:08:20;21.02;76.67
69944;DHT22;57257;48.408;-4.498;2022-08-19T09:10:51;21.02;76.68
69944;DHT22;57257;48.408;-4.498;2022-08-19T09:16:12;21.02;76.12
69944;DHT22;57257;48.408;-4.498;2022-08-19T09:18:48;21.10;76.20
69944;DHT22;57257;48.408;-4.498;2022-08-19T09:21:15;21.13;75.99
69944;DHT22;57257;48.408;-4.498;2022-08-19T09:23:40;21.14;75.73
69944;DHT22;57257;48.408;-4.498;2022-08-19T09:26:07;21.19;75.92
69944;DHT22;57257;48.408;-4.498;2022-08-19T09:28:33;21.26;75.95
69944;DHT22;57257;48.408;-4.498;2022-08-19T09:30:59;21.33;75.86
69944;DHT22;57257;48.408;-4.498;2022-08-19T09:33:24;21.36;75.60
69944;DHT22;57257;48.408;-4.498;2022-08-19T09:35:50;21.34;75.28
69944;DHT22;57257;48.408;-4.498;2022-08-19T09:38:15;21.33;75.47
69944;DHT22;57257;48.408;-4.498;2022-08-19T09:40:40;21.36;75.42
69944;DHT22;57257;48.408;-4.498;2022-08-19T09:43:06;21.37;75.40
69944;DHT22;57257;48.408;-4.498;2022-08-19T09:45:32;21.44;75.39
69944;DHT22;57257;48.408;-4.498;2022-08-19T09:47:58;21.58;75.14
69944;DHT22;57257;48.408;-4.498;2022-08-19T09:50:24;21.70;75.19
69944;DHT22;57257;48.408;-4.498;2022-08-19T09:52:49;21.92;75.16
69944;DHT22;57257;48.408;-4.498;2022-08-19T09:55:17;22.31;74.93
69944;DHT22;57257;48.408;-4.498;2022-08-19T09:57:43;22.57;73.64
69944;DHT22;57257;48.408;-4.498;2022-08-19T10:00:09;22.67;73.03
69944;DHT22;57257;48.408;-4.498;2022-08-19T10:02:35;22.79;72.79
69944;DHT22;57257;48.408;-4.498;2022-08-19T10:05:01;22.82;72.54
69944;DHT22;57257;48.408;-4.498;2022-08-19T10:08:02;22.82;72.06
69944;DHT22;57257;48.408;-4.498;2022-08-19T10:10:27;22.77;72.14
69944;DHT22;57257;48.408;-4.498;2022-08-19T10:12:53;22.77;71.79
69944;DHT22;57257;48.408;-4.498;2022-08-19T10:15:20;22.76;71.51
69944;DHT22;57257;48.408;-4.498;2022-08-19T10:17:46;22.75;71.00
69944;DHT22;57257;48.408;-4.498;2022-08-19T10:20:12;22.79;70.58
69944;DHT22;57257;48.408;-4.498;2022-08-19T10:22:37;22.82;70.60
69944;DHT22;57257;48.408;-4.498;2022-08-19T10:25:04;22.86;70.37
69944;DHT22;57257;48.408;-4.498;2022-08-19T10:27:30;22.89;69.99
69944;DHT22;57257;48.408;-4.498;2022-08-19T10:29:56;22.82;69.52
69944;DHT22;57257;48.408;-4.498;2022-08-19T10:32:22;22.85;69.61
69944;DHT22;57257;48.408;-4.498;2022-08-19T10:34:48;22.89;68.89
69944;DHT22;57257;48.408;-4.498;2022-08-19T10:37:16;22.89;68.06
69944;DHT22;57257;48.408;-4.498;2022-08-19T10:39:46;22.90;68.53
69944;DHT22;57257;48.408;-4.498;2022-08-19T10:42:14;22.95;68.26
69944;DHT22;57257;48.408;-4.498;2022-08-19T10:44:41;22.90;66.97
69944;DHT22;57257;48.408;-4.498;2022-08-19T10:47:08;22.89;66.90
69944;DHT22;57257;48.408;-4.498;2022-08-19T10:49:33;22.80;65.84
69944;DHT22;57257;48.408;-4.498;2022-08-19T10:52:18;22.83;66.88
69944;DHT22;57257;48.408;-4.498;2022-08-19T10:55:03;22.85;66.88
69944;DHT22;57257;48.408;-4.498;2022-08-19T10:57:48;22.86;67.17
69944;DHT22;57257;48.408;-4.498;2022-08-19T11:00:14;22.86;67.19
69944;DHT22;57257;48.408;-4.498;2022-08-19T11:02:40;22.82;66.95
69944;DHT22;57257;48.408;-4.498;2022-08-19T11:05:07;22.83;66.78
69944;DHT22;57257;48.408;-4.498;2022-08-19T11:07:32;22.79;66.51
69944;DHT22;57257;48.408;-4.498;2022-08-19T11:09:58;22.85;66.82
69944;DHT22;57257;48.408;-4.498;2022-08-19T11:12:23;23.10;66.55
69944;DHT22;57257;48.408;-4.498;2022-08-19T11:14:49;23.38;66.34
69944;DHT22;57257;48.408;-4.498;2022-08-19T11:17:15;23.64;65.64
69944;DHT22;57257;48.408;-4.498;2022-08-19T11:19:41;23.84;64.73
69944;DHT22;57257;48.408;-4.498;2022-08-19T11:22:08;23.94;63.95
69944;DHT22;57257;48.408;-4.498;2022-08-19T11:24:35;23.95;63.57
69944;DHT22;57257;48.408;-4.498;2022-08-19T11:27:07;24.00;63.83
69944;DHT22;57257;48.408;-4.498;2022-08-19T11:29:34;24.08;62.57
69944;DHT22;57257;48.408;-4.498;2022-08-19T11:32:06;24.11;61.00
69944;DHT22;57257;48.408;-4.498;2022-08-19T11:34:32;24.15;60.86
69944;DHT22;57257;48.408;-4.498;2022-08-19T11:36:58;24.30;60.91
69944;DHT22;57257;48.408;-4.498;2022-08-19T11:39:28;24.42;60.45
69944;DHT22;57257;48.408;-4.498;2022-08-19T11:41:54;24.45;59.67
69944;DHT22;57257;48.408;-4.498;2022-08-19T11:44:20;24.51;58.64
69944;DHT22;57257;48.408;-4.498;2022-08-19T11:46:46;24.49;58.10
69944;DHT22;57257;48.408;-4.498;2022-08-19T11:49:15;24.51;57.31
69944;DHT22;57257;48.408;-4.498;2022-08-19T11:51:42;24.48;57.48
69944;DHT22;57257;48.408;-4.498;2022-08-19T11:54:08;24.43;55.86
69944;DHT22;57257;48.408;-4.498;2022-08-19T11:56:36;24.35;56.99
69944;DHT22;57257;48.408;-4.498;2022-08-19T11:59:02;24.46;57.05
69944;DHT22;57257;48.408;-4.498;2022-08-19T12:01:28;24.60;57.60
69944;DHT22;57257;48.408;-4.498;2022-08-19T12:03:55;24.76;56.59
69944;DHT22;57257;48.408;-4.498;2022-08-19T12:06:24;24.87;56.50
69944;DHT22;57257;48.408;-4.498;2022-08-19T12:08:51;24.90;56.30
69944;DHT22;57257;48.408;-4.498;2022-08-19T12:11:17;24.80;56.64
69944;DHT22;57257;48.408;-4.498;2022-08-19T12:13:43;24.91;56.70
69944;DHT22;57257;48.408;-4.498;2022-08-19T12:16:15;25.14;56.29
69944;DHT22;57257;48.408;-4.498;2022-08-19T12:18:41;25.34;55.76
69944;DHT22;57257;48.408;-4.498;2022-08-19T12:21:09;25.34;54.74
69944;DHT22;57257;48.408;-4.498;2022-08-19T12:23:36;25.17;55.18
69944;DHT22;57257;48.408;-4.498;2022-08-19T12:26:03;25.18;55.11
69944;DHT22;57257;48.408;-4.498;2022-08-19T12:28:28;25.31;55.01
69944;DHT22;57257;48.408;-4.498;2022-08-19T12:30:55;25.54;54.12
69944;DHT22;57257;48.408;-4.498;2022-08-19T12:33:21;25.70;53.94
69944;DHT22;57257;48.408;-4.498;2022-08-19T12:35:50;25.88;54.54
69944;DHT22;57257;48.408;-4.498;2022-08-19T12:38:15;26.09;53.94
69944;DHT22;57257;48.408;-4.498;2022-08-19T12:40:41;26.31;53.38
69944;DHT22;57257;48.408;-4.498;2022-08-19T12:43:07;26.45;52.70
69944;DHT22;57257;48.408;-4.498;2022-08-19T12:45:33;26.59;52.52
69944;DHT22;57257;48.408;-4.498;2022-08-19T12:47:59;26.64;51.51
69944;DHT22;57257;48.408;-4.498;2022-08-19T12:50:24;26.53;51.33
69944;DHT22;57257;48.408;-4.498;2022-08-19T12:52:50;26.47;51.46
69944;DHT22;57257;48.408;-4.498;2022-08-19T12:55:15;26.46;52.11
69944;DHT22;57257;48.408;-4.498;2022-08-19T12:57:42;26.53;50.18
69944;DHT22;57257;48.408;-4.498;2022-08-19T13:00:13;26.53;51.02
69944;DHT22;57257;48.408;-4.498;2022-08-19T13:02:44;26.53;50.22
69944;DHT22;57257;48.408;-4.498;2022-08-19T13:05:14;26.46;50.48
69944;DHT22;57257;48.408;-4.498;2022-08-19T13:07:41;26.39;50.30
69944;DHT22;57257;48.408;-4.498;2022-08-19T13:10:11;26.47;50.35
69944;DHT22;57257;48.408;-4.498;2022-08-19T13:12:38;26.72;50.44
69944;DHT22;57257;48.408;-4.498;2022-08-19T13:15:05;26.90;48.07
69944;DHT22;57257;48.408;-4.498;2022-08-19T13:17:30;26.84;46.39
69944;DHT22;57257;48.408;-4.498;2022-08-19T13:19:55;26.86;46.03
69944;DHT22;57257;48.408;-4.498;2022-08-19T13:22:21;26.82;45.10
69944;DHT22;57257;48.408;-4.498;2022-08-19T13:24:46;26.75;45.24
69944;DHT22;57257;48.408;-4.498;2022-08-19T13:27:13;26.87;46.10
69944;DHT22;57257;48.408;-4.498;2022-08-19T13:29:40;27.01;45.99
69944;DHT22;57257;48.408;-4.498;2022-08-19T13:32:24;27.24;46.21
69944;DHT22;57257;48.408;-4.498;2022-08-19T13:35:08;27.51;46.33
69944;DHT22;57257;48.408;-4.498;2022-08-19T13:37:33;27.52;45.03
69944;DHT22;57257;48.408;-4.498;2022-08-19T13:40:13;27.51;45.13
69944;DHT22;57257;48.408;-4.498;2022-08-19T13:42:43;27.54;44.06
69944;DHT22;57257;48.408;-4.498;2022-08-19T13:45:12;27.54;44.81
69944;DHT22;57257;48.408;-4.498;2022-08-19T13:47:38;27.57;43.42
69944;DHT22;57257;48.408;-4.498;2022-08-19T13:50:15;27.38;43.24
69944;DHT22;57257;48.408;-4.498;2022-08-19T13:52:41;27.37;43.87
69944;DHT22;57257;48.408;-4.498;2022-08-19T13:55:08;27.41;41.96
69944;DHT22;57257;48.408;-4.498;2022-08-19T13:57:35;27.45;42.46
69944;DHT22;57257;48.408;-4.498;2022-08-19T14:00:01;27.59;41.94
69944;DHT22;57257;48.408;-4.498;2022-08-19T14:02:27;27.71;41.14
69944;DHT22;57257;48.408;-4.498;2022-08-19T14:04:52;27.84;41.04
69944;DHT22;57257;48.408;-4.498;2022-08-19T14:07:18;27.96;40.92
69944;DHT22;57257;48.408;-4.498;2022-08-19T14:09:43;28.08;40.71
69944;DHT22;57257;48.408;-4.498;2022-08-19T14:12:09;28.17;40.82
69944;DHT22;57257;48.408;-4.498;2022-08-19T14:14:38;28.31;40.84
69944;DHT22;57257;48.408;-4.498;2022-08-19T14:17:08;28.37;40.68
69944;DHT22;57257;48.408;-4.498;2022-08-19T14:19:34;28.37;40.00
69944;DHT22;57257;48.408;-4.498;2022-08-19T14:22:00;28.39;40.26
69944;DHT22;57257;48.408;-4.498;2022-08-19T14:24:26;28.33;39.93
69944;DHT22;57257;48.408;-4.498;2022-08-19T14:26:52;28.37;40.89
69944;DHT22;57257;48.408;-4.498;2022-08-19T14:29:17;28.46;40.66
69944;DHT22;57257;48.408;-4.498;2022-08-19T14:31:43;28.57;40.81
69944;DHT22;57257;48.408;-4.498;2022-08-19T14:34:08;28.77;41.19
69944;DHT22;57257;48.408;-4.498;2022-08-19T14:36:36;28.89;40.62
69944;DHT22;57257;48.408;-4.498;2022-08-19T14:39:02;28.89;39.97
69944;DHT22;57257;48.408;-4.498;2022-08-19T14:41:27;28.90;40.09
69944;DHT22;57257;48.408;-4.498;2022-08-19T14:43:54;28.84;39.19
69944;DHT22;57257;48.408;-4.498;2022-08-19T14:46:22;28.80;39.41
69944;DHT22;57257;48.408;-4.498;2022-08-19T14:48:49;28.79;39.53
69944;DHT22;57257;48.408;-4.498;2022-08-19T14:51:15;28.91;39.70
69944;DHT22;57257;48.408;-4.498;2022-08-19T14:53:41;29.10;39.81
69944;DHT22;57257;48.408;-4.498;2022-08-19T14:56:11;29.25;39.64
69944;DHT22;57257;48.408;-4.498;2022-08-19T14:58:38;29.39;39.06
69944;DHT22;57257;48.408;-4.498;2022-08-19T15:01:06;29.52;39.08
69944;DHT22;57257;48.408;-4.498;2022-08-19T15:03:31;29.54;38.87
69944;DHT22;57257;48.408;-4.498;2022-08-19T15:05:57;29.59;38.04
69944;DHT22;57257;48.408;-4.498;2022-08-19T15:08:24;29.68;37.88
69944;DHT22;57257;48.408;-4.498;2022-08-19T15:10:51;29.85;37.79
69944;DHT22;57257;48.408;-4.498;2022-08-19T15:13:17;30.02;38.18
69944;DHT22;57257;48.408;-4.498;2022-08-19T15:15:43;30.35;37.97
69944;DHT22;57257;48.408;-4.498;2022-08-19T15:18:08;30.67;37.57
69944;DHT22;57257;48.408;-4.498;2022-08-19T15:20:35;30.93;37.04
69944;DHT22;57257;48.408;-4.498;2022-08-19T15:23:01;31.03;37.27
69944;DHT22;57257;48.408;-4.498;2022-08-19T15:25:27;30.98;36.66
69944;DHT22;57257;48.408;-4.498;2022-08-19T15:27:52;31.41;36.64